sensor_id;sensor_type;location;lat;lon;timestamp;pressure;altitude;pressure_sealevel;temperature;humidity
47897;BME280;39629;51.400;5.494;2023-06-22T00:03:27;101703.19;;;17.53;100.00
47897;BME280;39629;51.400;5.494;2023-06-22T00:08:28;101701.19;;;17.66;100.00
47897;BME280;39629;51.400;5.494;2023-06-22T00:13:31;101704.69;;;17.68;100.00
47897;BME280;39629;51.400;5.494;2023-06-22T00:18:33;101697.41;;;17.28;100.00
47897;BME280;39629;51.400;5.494;2023-06-22T00:23:34;101711.44;;;17.35;100.00
47897;BME280;39629;51.400;5.494;2023-06-22T00:28:38;101706.38;;;17.21;100.00
47897;BME280;39629;51.400;5.494;2023-06-22T00:33:39;101701.16;;;16.56;100.00
47897;BME280;39629;51.400;5.494;2023-06-22T00:38:41;101689.59;;;16.60;100.00
47897;BME280;39629;51.400;5.494;2023-06-22T00:43:45;101690.84;;;16.93;100.00
47897;BME280;39629;51.400;5.494;2023-06-22T00:48:46;101688.88;;;17.08;100.00
47897;BME280;39629;51.400;5.494;2023-06-22T00:53:49;101683.34;;;17.20;100.00
47897;BME280;39629;51.400;5.494;2023-06-22T00:58:53;101686.91;;;17.19;100.00
47897;BME280;39629;51.400;5.494;2023-06-22T01:03:54;101682.50;;;17.18;100.00
47897;BME280;39629;51.400;5.494;2023-06-22T01:09:04;101693.38;;;17.02;100.00
47897;BME280;39629;51.400;5.494;2023-06-22T01:14:12;101680.19;;;16.96;100.00
47897;BME280;39629;51.400;5.494;2023-06-22T01:19:29;101679.03;;;17.11;100.00
47897;BME280;39629;51.400;5.494;2023-06-22T01:24:44;101694.91;;;17.17;100.00
47897;BME280;39629;51.400;5.494;2023-06-22T01:29:51;101683.41;;;17.15;100.00
47897;BME280;39629;51.400;5.494;2023-06-22T01:34:54;101677.28;;;17.12;100.00
47897;BME280;39629;51.400;5.494;2023-06-22T01:39:56;101676.38;;;17.11;100.00
47897;BME280;39629;51.400;5.494;2023-06-22T01:45:01;101679.94;;;17.12;100.00
47897;BME280;39629;51.400;5.494;2023-06-22T01:50:05;101685.22;;;17.15;100.00
47897;BME280;39629;51.400;5.494;2023-06-22T01:55:08;101675.63;;;17.03;100.00
47897;BME280;39629;51.400;5.494;2023-06-22T02:00:13;101671.50;;;16.85;100.00
47897;BME280;39629;51.400;5.494;2023-06-22T02:05:19;101662.06;;;17.18;100.00
47897;BME280;39629;51.400;5.494;2023-06-22T02:10:23;101657.78;;;17.11;100.00
47897;BME280;39629;51.400;5.494;2023-06-22T02:15:27;101671.00;;;17.16;100.00
47897;BME280;39629;51.400;5.494;2023-06-22T02:20:29;101665.00;;;17.03;100.00
47897;BME280;39629;51.400;5.494;2023-06-22T02:25:31;101658.81;;;17.02;100.00
47897;BME280;39629;51.400;5.494;2023-06-22T02:30:34;101650.75;;;17.07;100.00
47897;BME280;39629;51.400;5.494;2023-06-22T02:35:35;101647.03;;;17.17;100.00
47897;BME280;39629;51.400;5.494;2023-06-22T02:40:37;101637.41;;;17.09;100.00
47897;BME280;39629;51.400;5.494;2023-06-22T02:45:40;101639.88;;;17.21;100.00
47897;BME280;39629;51.400;5.494;2023-06-22T02:50:42;101641.59;;;17.24;100.00
47897;BME280;39629;51.400;5.494;2023-06-22T02:55:44;101637.97;;;17.28;100.00
47897;BME280;39629;51.400;5.494;2023-06-22T03:00:47;101639.72;;;17.30;100.00
47897;BME280;39629;51.400;5.494;2023-06-22T03:05:48;101625.66;;;17.22;100.00
47897;BME280;39629;51.400;5.494;2023-06-22T03:10:53;101625.63;;;17.24;100.00
47897;BME280;39629;51.400;5.494;2023-06-22T03:15:56;101611.28;;;17.34;100.00
47897;BME280;39629;51.400;5.494;2023-06-22T03:20:57;101604.31;;;17.25;100.00
47897;BME280;39629;51.400;5.494;2023-06-22T03:25:59;101593.66;;;17.28;100.00
47897;BME280;39629;51.400;5.494;2023-06-22T03:31:03;101589.16;;;17.30;100.00
47897;BME280;39629;51.400;5.494;2023-06-22T03:36:06;101592.69;;;17.31;100.00
47897;BME280;39629;51.400;5.494;2023-06-22T03:41:08;101585.53;;;17.34;100.00
47897;BME280;39629;51.400;5.494;2023-06-22T03:46:11;101588.13;;;17.37;100.00
47897;BME280;39629;51.400;5.494;2023-06-22T03:51:13;101596.94;;;17.43;100.00
47897;BME280;39629;51.400;5.494;2023-06-22T03:56:14;101588.09;;;17.41;100.00
47897;BME280;39629;51.400;5.494;2023-06-22T04:01:21;101593.44;;;17.42;100.00
47897;BME280;39629;51.400;5.494;2023-06-22T04:06:23;101597.78;;;17.45;100.00
47897;BME280;39629;51.400;5.494;2023-06-22T04:11:24;101591.47;;;17.50;100.00
47897;BME280;39629;51.400;5.494;2023-06-22T04:16:27;101579.63;;;17.65;100.00
47897;BME280;39629;51.400;5.494;2023-06-22T04:21:29;101582.94;;;17.77;100.00
47897;BME280;39629;51.400;5.494;2023-06-22T04:26:30;101578.22;;;17.91;100.00
47897;BME280;39629;51.400;5.494;2023-06-22T04:31:38;101580.81;;;17.94;100.00
47897;BME280;39629;51.400;5.494;2023-06-22T04:36:40;101585.00;;;18.04;100.00
47897;BME280;39629;51.400;5.494;2023-06-22T04:41:42;101580.47;;;18.10;100.00
47897;BME280;39629;51.400;5.494;2023-06-22T04:46:45;101581.19;;;18.18;100.00
47897;BME280;39629;51.400;5.494;2023-06-22T04:51:46;101581.88;;;18.26;100.00
47897;BME280;39629;51.400;5.494;2023-06-22T04:56:48;101578.94;;;18.38;100.00
47897;BME280;39629;51.400;5.494;2023-06-22T05:01:59;101585.81;;;18.49;100.00
47897;BME280;39629;51.400;5.494;2023-06-22T05:07:01;101579.38;;;18.59;100.00
47897;BME280;39629;51.400;5.494;2023-06-22T05:12:04;101573.69;;;18.73;100.00
47897;BME280;39629;51.400;5.494;2023-06-22T05:17:06;101581.13;;;18.95;100.00
47897;BME280;39629;51.400;5.494;2023-06-22T05:22:14;101581.03;;;18.99;100.00
47897;BME280;39629;51.400;5.494;2023-06-22T05:27:16;101574.69;;;19.03;100.00
47897;BME280;39629;51.400;5.494;2023-06-22T05:32:18;101578.44;;;18.96;100.00
47897;BME280;39629;51.400;5.494;2023-06-22T05:37:20;101564.06;;;19.00;100.00
47897;BME280;39629;51.400;5.494;2023-06-22T05:42:22;101575.56;;;19.04;100.00
47897;BME280;39629;51.400;5.494;2023-06-22T05:47:26;101579.75;;;19.13;100.00
47897;BME280;39629;51.400;5.494;2023-06-22T05:52:28;101583.81;;;19.28;100.00
47897;BME280;39629;51.400;5.494;2023-06-22T05:57:29;101595.00;;;19.44;100.00
47897;BME280;39629;51.400;5.494;2023-06-22T06:02:32;101584.03;;;19.53;100.00
47897;BME280;39629;51.400;5.494;2023-06-22T06:07:34;101583.22;;;19.81;100.00
47897;BME280;39629;51.400;5.494;2023-06-22T06:12:35;101584.91;;;20.15;100.00
47897;BME280;39629;51.400;5.494;2023-06-22T06:17:46;101584.25;;;20.06;100.00
47897;BME280;39629;51.400;5.494;2023-06-22T06:22:48;101582.09;;;19.89;100.00
47897;BME280;39629;51.400;5.494;2023-06-22T06:27:50;101578.06;;;20.04;100.00
47897;BME280;39629;51.400;5.494;2023-06-22T06:32:56;101573.56;;;20.06;100.00
47897;BME280;39629;51.400;5.494;2023-06-22T06:37:57;101577.25;;;20.02;100.00
47897;BME280;39629;51.400;5.494;2023-06-22T06:42:59;101581.84;;;19.97;100.00
47897;BME280;39629;51.400;5.494;2023-06-22T06:48:03;101580.16;;;19.95;100.00
47897;BME280;39629;51.400;5.494;2023-06-22T06:53:04;101580.25;;;19.91;100.00
47897;BME280;39629;51.400;5.494;2023-06-22T06:58:06;101587.19;;;19.97;100.00
47897;BME280;39629;51.400;5.494;2023-06-22T07:03:11;101585.00;;;20.12;100.00
47897;BME280;39629;51.400;5.494;2023-06-22T07:08:13;101590.97;;;20.20;100.00
47897;BME280;39629;51.400;5.494;2023-06-22T07:13:14;101579.28;;;20.22;100.00
47897;BME280;39629;51.400;5.494;2023-06-22T07:18:17;101570.09;;;20.33;100.00
47897;BME280;39629;51.400;5.494;2023-06-22T07:23:18;101561.81;;;20.40;100.00
47897;BME280;39629;51.400;5.494;2023-06-22T07:28:20;101559.78;;;20.49;100.00
47897;BME280;39629;51.400;5.494;2023-06-22T07:33:23;101539.78;;;20.60;100.00
47897;BME280;39629;51.400;5.494;2023-06-22T07:38:24;101537.50;;;20.75;100.00
47897;BME280;39629;51.400;5.494;2023-06-22T07:43:26;101527.91;;;20.94;100.00
47897;BME280;39629;51.400;5.494;2023-06-22T07:48:29;101515.72;;;21.11;100.00
47897;BME280;39629;51.400;5.494;2023-06-22T07:53:30;101499.44;;;21.19;100.00
47897;BME280;39629;51.400;5.494;2023-06-22T07:58:32;101478.06;;;21.17;100.00
47897;BME280;39629;51.400;5.494;2023-06-22T08:03:35;101463.72;;;21.43;100.00
47897;BME280;39629;51.400;5.494;2023-06-22T08:08:37;101458.19;;;21.48;100.00
47897;BME280;39629;51.400;5.494;2023-06-22T08:13:38;101453.06;;;21.64;100.00
47897;BME280;39629;51.400;5.494;2023-06-22T08:18:41;101457.75;;;21.59;100.00
47897;BME280;39629;51.400;5.494;2023-06-22T08:23:43;101450.66;;;21.58;100.00
47897;BME280;39629;51.400;5.494;2023-06-22T08:28:44;101454.38;;;21.54;100.00
47897;BME280;39629;51.400;5.494;2023-06-22T08:33:47;101457.13;;;21.52;100.00
47897;BME280;39629;51.400;5.494;2023-06-22T08:38:48;101452.41;;;21.59;100.00
47897;BME280;39629;51.400;5.494;2023-06-22T08:43:51;101453.06;;;21.42;100.00
47897;BME280;39629;51.400;5.494;2023-06-22T08:48:54;101443.97;;;21.46;100.00
47897;BME280;39629;51.400;5.494;2023-06-22T08:53:55;101445.56;;;21.74;100.00
47897;BME280;39629;51.400;5.494;2023-06-22T08:58:57;101444.75;;;21.94;100.00
47897;BME280;39629;51.400;5.494;2023-06-22T09:04:00;101440.34;;;22.15;100.00
47897;BME280;39629;51.400;5.494;2023-06-22T09:09:01;101433.59;;;22.27;100.00
47897;BME280;39629;51.400;5.494;2023-06-22T09:14:03;101422.34;;;22.19;100.00
47897;BME280;39629;51.400;5.494;2023-06-22T09:19:07;101421.88;;;22.29;100.00
47897;BME280;39629;51.400;5.494;2023-06-22T09:24:08;101417.53;;;22.27;100.00
47897;BME280;39629;51.400;5.494;2023-06-22T09:29:10;101427.13;;;22.10;100.00
47897;BME280;39629;51.400;5.494;2023-06-22T09:34:13;101423.53;;;22.11;100.00
47897;BME280;39629;51.400;5.494;2023-06-22T09:39:14;101420.50;;;21.97;100.00
47897;BME280;39629;51.400;5.494;2023-06-22T09:44:16;101422.03;;;22.04;100.00
47897;BME280;39629;51.400;5.494;2023-06-22T09:49:19;101416.06;;;21.96;100.00
47897;BME280;39629;51.400;5.494;2023-06-22T09:54:20;101420.38;;;22.00;100.00
47897;BME280;39629;51.400;5.494;2023-06-22T09:59:22;101416.41;;;22.10;100.00
47897;BME280;39629;51.400;5.494;2023-06-22T10:04:25;101413.81;;;22.09;100.00
47897;BME280;39629;51.400;5.494;2023-06-22T10:09:27;101403.94;;;22.09;100.00
47897;BME280;39629;51.400;5.494;2023-06-22T10:14:28;101416.03;;;22.20;100.00
47897;BME280;39629;51.400;5.494;2023-06-22T10:19:31;101415.00;;;22.00;100.00
47897;BME280;39629;51.400;5.494;2023-06-22T10:24:33;101419.03;;;21.90;100.00
47897;BME280;39629;51.400;5.494;2023-06-22T10:29:35;101434.97;;;21.93;100.00
47897;BME280;39629;51.400;5.494;2023-06-22T10:34:38;101445.19;;;21.83;100.00
47897;BME280;39629;51.400;5.494;2023-06-22T10:39:39;101448.34;;;21.71;100.00
47897;BME280;39629;51.400;5.494;2023-06-22T10:44:41;101441.81;;;21.32;100.00
47897;BME280;39629;51.400;5.494;2023-06-22T10:49:46;101446.03;;;21.14;100.00
47897;BME280;39629;51.400;5.494;2023-06-22T10:54:47;101443.19;;;20.95;100.00
47897;BME280;39629;51.400;5.494;2023-06-22T10:59:49;101461.03;;;20.44;100.00
47897;BME280;39629;51.400;5.494;2023-06-22T11:04:52;101456.81;;;20.37;100.00
47897;BME280;39629;51.400;5.494;2023-06-22T11:09:53;101460.94;;;19.92;100.00
47897;BME280;39629;51.400;5.494;2023-06-22T11:14:55;101465.81;;;19.78;100.00
47897;BME280;39629;51.400;5.494;2023-06-22T11:19:58;101479.81;;;19.57;100.00
47897;BME280;39629;51.400;5.494;2023-06-22T11:25:00;101480.47;;;19.64;100.00
47897;BME280;39629;51.400;5.494;2023-06-22T11:30:02;101454.31;;;19.16;100.00
47897;BME280;39629;51.400;5.494;2023-06-22T11:35:06;101427.78;;;19.10;100.00
47897;BME280;39629;51.400;5.494;2023-06-22T11:40:08;101424.41;;;19.03;100.00
47897;BME280;39629;51.400;5.494;2023-06-22T11:45:10;101417.97;;;19.12;100.00
47897;BME280;39629;51.400;5.494;2023-06-22T11:50:14;101407.03;;;19.19;100.00
47897;BME280;39629;51.400;5.494;2023-06-22T11:55:15;101394.00;;;19.10;100.00
47897;BME280;39629;51.400;5.494;2023-06-22T12:00:17;101384.00;;;19.17;100.00
47897;BME280;39629;51.400;5.494;2023-06-22T12:05:22;101391.66;;;18.99;100.00
47897;BME280;39629;51.400;5.494;2023-06-22T12:10:25;101370.34;;;18.98;100.00
47897;BME280;39629;51.400;5.494;2023-06-22T12:15:28;101370.31;;;18.99;100.00
47897;BME280;39629;51.400;5.494;2023-06-22T12:20:31;101366.78;;;18.97;100.00
47897;BME280;39629;51.400;5.494;2023-06-22T12:25:33;101360.53;;;18.98;100.00
47897;BME280;39629;51.400;5.494;2023-06-22T12:30:34;101360.66;;;18.95;100.00
47897;BME280;39629;51.400;5.494;2023-06-22T12:35:37;101358.25;;;18.86;100.00
47897;BME280;39629;51.400;5.494;2023-06-22T12:40:46;101349.22;;;18.90;100.00
47897;BME280;39629;51.400;5.494;2023-06-22T12:45:49;101341.94;;;18.97;100.00
47897;BME280;39629;51.400;5.494;2023-06-22T12:50:51;101336.75;;;18.92;100.00
47897;BME280;39629;51.400;5.494;2023-06-22T12:55:54;101341.00;;;18.98;100.00
47897;BME280;39629;51.400;5.494;2023-06-22T13:00:55;101352.53;;;18.98;100.00
47897;BME280;39629;51.400;5.494;2023-06-22T13:05:57;101339.84;;;18.77;100.00
47897;BME280;39629;51.400;5.494;2023-06-22T13:11:00;101328.50;;;18.68;100.00
47897;BME280;39629;51.400;5.494;2023-06-22T13:16:01;101311.59;;;18.69;100.00
47897;BME280;39629;51.400;5.494;2023-06-22T13:21:03;101306.06;;;18.77;100.00
47897;BME280;39629;51.400;5.494;2023-06-22T13:26:07;101292.25;;;18.63;100.00
47897;BME280;39629;51.400;5.494;2023-06-22T13:31:09;101275.50;;;18.59;100.00
47897;BME280;39629;51.400;5.494;2023-06-22T13:36:10;101284.13;;;18.67;100.00
47897;BME280;39629;51.400;5.494;2023-06-22T13:41:13;101279.63;;;18.69;100.00
47897;BME280;39629;51.400;5.494;2023-06-22T13:46:15;101279.81;;;18.63;100.00
47897;BME280;39629;51.400;5.494;2023-06-22T13:51:17;101273.88;;;18.53;100.00
47897;BME280;39629;51.400;5.494;2023-06-22T13:56:20;101289.28;;;18.40;100.00
47897;BME280;39629;51.400;5.494;2023-06-22T14:01:22;101283.16;;;18.38;100.00
47897;BME280;39629;51.400;5.494;2023-06-22T14:06:23;101281.03;;;18.18;100.00
47897;BME280;39629;51.400;5.494;2023-06-22T14:11:26;101274.03;;;18.16;100.00
47897;BME280;39629;51.400;5.494;2023-06-22T14:16:28;101266.41;;;18.00;100.00
47897;BME280;39629;51.400;5.494;2023-06-22T14:21:29;101258.66;;;17.93;100.00
47897;BME280;39629;51.400;5.494;2023-06-22T14:26:32;101257.84;;;17.89;100.00
47897;BME280;39629;51.400;5.494;2023-06-22T14:31:34;101249.09;;;17.85;100.00
47897;BME280;39629;51.400;5.494;2023-06-22T14:36:35;101234.88;;;17.85;100.00
47897;BME280;39629;51.400;5.494;2023-06-22T14:41:38;101231.53;;;17.78;100.00
47897;BME280;39629;51.400;5.494;2023-06-22T14:46:40;101232.41;;;17.79;100.00
47897;BME280;39629;51.400;5.494;2023-06-22T14:51:42;101226.22;;;17.77;100.00
47897;BME280;39629;51.400;5.494;2023-06-22T14:56:44;101219.25;;;17.73;100.00
47897;BME280;39629;51.400;5.494;2023-06-22T15:01:46;101230.47;;;17.85;100.00
47897;BME280;39629;51.400;5.494;2023-06-22T15:06:48;101241.97;;;17.86;100.00
47897;BME280;39629;51.400;5.494;2023-06-22T15:11:51;101242.78;;;17.90;100.00
47897;BME280;39629;51.400;5.494;2023-06-22T15:16:52;101224.22;;;17.85;100.00
47897;BME280;39629;51.400;5.494;2023-06-22T15:21:54;101235.56;;;17.93;100.00
47897;BME280;39629;51.400;5.494;2023-06-22T15:26:57;101224.94;;;17.92;100.00
47897;BME280;39629;51.400;5.494;2023-06-22T15:31:59;101222.94;;;18.00;100.00
47897;BME280;39629;51.400;5.494;2023-06-22T15:37:01;101216.75;;;17.99;100.00
47897;BME280;39629;51.400;5.494;2023-06-22T15:42:04;101221.16;;;18.00;100.00
47897;BME280;39629;51.400;5.494;2023-06-22T15:47:06;101208.78;;;17.99;100.00
47897;BME280;39629;51.400;5.494;2023-06-22T15:52:08;101199.94;;;17.97;100.00
47897;BME280;39629;51.400;5.494;2023-06-22T15:57:11;101192.88;;;17.96;100.00
47897;BME280;39629;51.400;5.494;2023-06-22T16:02:13;101195.63;;;17.93;100.00
47897;BME280;39629;51.400;5.494;2023-06-22T16:07:15;101203.69;;;17.90;100.00
47897;BME280;39629;51.400;5.494;2023-06-22T16:12:18;101210.88;;;17.88;100.00
47897;BME280;39629;51.400;5.494;2023-06-22T16:17:19;101216.09;;;17.91;100.00
47897;BME280;39629;51.400;5.494;2023-06-22T16:22:21;101216.81;;;17.98;100.00
47897;BME280;39629;51.400;5.494;2023-06-22T16:27:24;101224.81;;;17.98;100.00
47897;BME280;39629;51.400;5.494;2023-06-22T16:32:28;101223.81;;;18.00;100.00
47897;BME280;39629;51.400;5.494;2023-06-22T16:37:29;101223.81;;;18.00;100.00
47897;BME280;39629;51.400;5.494;2023-06-22T16:42:32;101232.84;;;17.96;100.00
47897;BME280;39629;51.400;5.494;2023-06-22T16:47:34;101236.31;;;17.98;100.00
47897;BME280;39629;51.400;5.494;2023-06-22T16:52:36;101258.56;;;17.96;100.00
47897;BME280;39629;51.400;5.494;2023-06-22T16:57:40;101265.50;;;18.01;100.00
47897;BME280;39629;51.400;5.494;2023-06-22T17:02:44;101268.97;;;18.05;100.00
47897;BME280;39629;51.400;5.494;2023-06-22T17:07:48;101274.31;;;18.05;100.00
47897;BME280;39629;51.400;5.494;2023-06-22T17:12:55;101269.88;;;18.04;100.00
47897;BME280;39629;51.400;5.494;2023-06-22T17:17:57;101271.47;;;18.11;100.00
47897;BME280;39629;51.400;5.494;2023-06-22T17:23:00;101260.66;;;18.17;100.00
47897;BME280;39629;51.400;5.494;2023-06-22T17:28:03;101264.88;;;18.25;100.00
47897;BME280;39629;51.400;5.494;2023-06-22T17:33:08;101262.19;;;18.26;100.00
47897;BME280;39629;51.400;5.494;2023-06-22T17:38:19;101253.94;;;18.35;100.00
47897;BME280;39629;51.400;5.494;2023-06-22T17:43:22;101267.16;;;18.38;100.00
47897;BME280;39629;51.400;5.494;2023-06-22T17:48:24;101281.41;;;18.37;100.00
47897;BME280;39629;51.400;5.494;2023-06-22T17:53:26;101284.88;;;18.41;100.00
47897;BME280;39629;51.400;5.494;2023-06-22T17:58:29;101280.47;;;18.38;100.00
47897;BME280;39629;51.400;5.494;2023-06-22T18:03:30;101269.16;;;18.30;100.00
47897;BME280;39629;51.400;5.494;2023-06-22T18:08:32;101274.59;;;18.27;100.00
47897;BME280;39629;51.400;5.494;2023-06-22T18:13:35;101264.19;;;18.18;100.00
47897;BME280;39629;51.400;5.494;2023-06-22T18:18:38;101274.94;;;18.15;100.00
47897;BME280;39629;51.400;5.494;2023-06-22T18:23:41;101269.84;;;18.05;100.00
47897;BME280;39629;51.400;5.494;2023-06-22T18:28:44;101260.94;;;18.07;100.00
47897;BME280;39629;51.400;5.494;2023-06-22T18:33:49;101261.09;;;18.02;100.00
47897;BME280;39629;51.400;5.494;2023-06-22T18:38:51;101260.28;;;17.98;100.00
47897;BME280;39629;51.400;5.494;2023-06-22T18:43:59;101262.06;;;17.98;100.00
47897;BME280;39629;51.400;5.494;2023-06-22T18:49:02;101272.78;;;17.95;100.00
47897;BME280;39629;51.400;5.494;2023-06-22T18:54:04;101266.69;;;17.91;100.00
47897;BME280;39629;51.400;5.494;2023-06-22T18:59:11;101279.25;;;17.86;100.00
47897;BME280;39629;51.400;5.494;2023-06-22T19:04:14;101289.03;;;17.85;100.00
47897;BME280;39629;51.400;5.494;2023-06-22T19:09:16;101293.53;;;17.82;100.00
47897;BME280;39629;51.400;5.494;2023-06-22T19:14:21;101306.97;;;17.77;100.00
47897;BME280;39629;51.400;5.494;2023-06-22T19:19:23;101308.06;;;17.68;100.00
47897;BME280;39629;51.400;5.494;2023-06-22T19:24:28;101317.00;;;17.67;100.00
47897;BME280;39629;51.400;5.494;2023-06-22T19:29:32;101335.66;;;17.66;100.00
47897;BME280;39629;51.400;5.494;2023-06-22T19:34:35;101362.31;;;17.63;100.00
47897;BME280;39629;51.400;5.494;2023-06-22T19:39:36;101381.94;;;17.60;100.00
47897;BME280;39629;51.400;5.494;2023-06-22T19:44:39;101384.59;;;17.60;100.00
47897;BME280;39629;51.400;5.494;2023-06-22T19:49:41;101412.94;;;17.61;100.00
47897;BME280;39629;51.400;5.494;2023-06-22T19:54:43;101427.22;;;17.57;100.00
47897;BME280;39629;51.400;5.494;2023-06-22T19:59:46;101436.25;;;17.50;100.00
47897;BME280;39629;51.400;5.494;2023-06-22T20:04:49;101451.41;;;17.48;100.00
47897;BME280;39629;51.400;5.494;2023-06-22T20:10:05;101457.69;;;17.44;100.00
47897;BME280;39629;51.400;5.494;2023-06-22T20:15:17;101439.16;;;17.39;100.00
47897;BME280;39629;51.400;5.494;2023-06-22T20:20:20;101455.16;;;17.36;100.00
47897;BME280;39629;51.400;5.494;2023-06-22T20:25:24;101469.31;;;17.40;100.00
47897;BME280;39629;51.400;5.494;2023-06-22T20:30:27;101463.09;;;17.37;100.00
47897;BME280;39629;51.400;5.494;2023-06-22T20:35:28;101466.66;;;17.40;100.00
47897;BME280;39629;51.400;5.494;2023-06-22T20:40:30;101478.19;;;17.39;100.00
47897;BME280;39629;51.400;5.494;2023-06-22T20:45:33;101467.41;;;17.45;100.00
47897;BME280;39629;51.400;5.494;2023-06-22T20:50:35;101470.06;;;17.45;100.00
47897;BME280;39629;51.400;5.494;2023-06-22T20:55:37;101474.53;;;17.44;100.00
47897;BME280;39629;51.400;5.494;2023-06-22T21:00:40;101471.00;;;17.44;100.00
47897;BME280;39629;51.400;5.494;2023-06-22T21:05:42;101484.38;;;17.37;100.00
47897;BME280;39629;51.400;5.494;2023-06-22T21:10:44;101483.56;;;17.35;100.00
47897;BME280;39629;51.400;5.494;2023-06-22T21:15:47;101487.97;;;17.35;100.00
47897;BME280;39629;51.400;5.494;2023-06-22T21:20:49;101500.41;;;17.34;100.00
47897;BME280;39629;51.400;5.494;2023-06-22T21:25:50;101489.81;;;17.33;100.00
47897;BME280;39629;51.400;5.494;2023-06-22T21:30:53;101503.22;;;17.28;100.00
47897;BME280;39629;51.400;5.494;2023-06-22T21:35:55;101510.38;;;17.25;100.00
47897;BME280;39629;51.400;5.494;2023-06-22T21:40:57;101512.13;;;17.26;100.00
47897;BME280;39629;51.400;5.494;2023-06-22T21:45:59;101516.69;;;17.19;100.00
47897;BME280;39629;51.400;5.494;2023-06-22T21:51:01;101509.78;;;17.09;100.00
47897;BME280;39629;51.400;5.494;2023-06-22T21:56:03;101517.03;;;17.02;100.00
47897;BME280;39629;51.400;5.494;2023-06-22T22:01:06;101502.91;;;16.98;100.00
47897;BME280;39629;51.400;5.494;2023-06-22T22:06:08;101517.97;;;16.98;100.00
47897;BME280;39629;51.400;5.494;2023-06-22T22:11:09;101533.16;;;16.91;100.00
47897;BME280;39629;51.400;5.494;2023-06-22T22:16:12;101536.84;;;16.84;100.00
47897;BME280;39629;51.400;5.494;2023-06-22T22:21:14;101551.06;;;16.81;100.00
47897;BME280;39629;51.400;5.494;2023-06-22T22:26:15;101566.09;;;16.84;100.00
47897;BME280;39629;51.400;5.494;2023-06-22T22:31:19;101576.84;;;16.76;100.00
47897;BME280;39629;51.400;5.494;2023-06-22T22:36:21;101561.00;;;16.68;100.00
47897;BME280;39629;51.400;5.494;2023-06-22T22:41:22;101566.53;;;16.58;100.00
47897;BME280;39629;51.400;5.494;2023-06-22T22:46:25;101579.91;;;16.50;100.00
47897;BME280;39629;51.400;5.494;2023-06-22T22:51:27;101590.66;;;16.41;100.00
47897;BME280;39629;51.400;5.494;2023-06-22T22:56:28;101597.94;;;16.29;100.00
47897;BME280;39629;51.400;5.494;2023-06-22T23:01:31;101610.41;;;16.21;100.00
47897;BME280;39629;51.400;5.494;2023-06-22T23:06:33;101616.81;;;16.06;100.00
47897;BME280;39629;51.400;5.494;2023-06-22T23:11:37;101617.84;;;15.94;100.00
47897;BME280;39629;51.400;5.494;2023-06-22T23:16:40;101637.38;;;15.89;100.00
47897;BME280;39629;51.400;5.494;2023-06-22T23:21:41;101627.78;;;15.80;100.00
47897;BME280;39629;51.400;5.494;2023-06-22T23:26:43;101625.22;;;15.71;100.00
47897;BME280;39629;51.400;5.494;2023-06-22T23:31:51;101634.19;;;15.59;100.00
47897;BME280;39629;51.400;5.494;2023-06-22T23:36:54;101634.22;;;15.54;100.00
47897;BME280;39629;51.400;5.494;2023-06-22T23:41:55;101642.28;;;15.46;100.00
47897;BME280;39629;51.400;5.494;2023-06-22T23:46:59;101645.88;;;15.39;100.00
47897;BME280;39629;51.400;5.494;2023-06-22T23:52:01;101644.16;;;15.33;100.00
47897;BME280;39629;51.400;5.494;2023-06-22T23:57:05;101654.00;;;15.22;100.00
